AirNav   Free Bose QuietComfort 20
 
 520 users online  

II26 Ashby Airport
Remington, Indiana, USA

GOING TO REMINGTON?


FAA INFORMATION EFFECTIVE 05 DECEMBER 2019

Location

FAA Identifier: II26
Lat/Long: 40-42-14.1400N 087-11-16.0650W
40-42.235667N 087-11.267750W
40.7039278,-87.1877958
(estimated)
Elevation: 750 ft. / 229 m (estimated)
Variation: 01W (1985)
From city: 4 miles SW of REMINGTON, IN
Time zone: UTC -5 (UTC -4 during Daylight Saving Time)
Zip code: 47977

Airport Operations

Airport use: Private use. Permission required prior to landing
Activation date: 02/1982
Control tower: no
ARTCC: CHICAGO CENTER
FSS: TERRE HAUTE FLIGHT SERVICE STATION
Attendance: UNATNDD
Wind indicator: yes
Segmented circle: no

Airport Communications

WX AWOS-3P at RZL (15 nm N): 119.175 (219-866-7167)
WX AWOS-3P at MCX (19 nm E): 124.05 (574-583-0531)

Nearby radio navigation aids

VOR radial/distance  VOR name  Freq  Var
BVTr328/10.4BOILER VORTAC115.1001E
DNVr032/29.8DANVILLE VORTAC111.0002E
IKKr126/37.4KANKAKEE VOR/DME111.6000E

Airport Services

Runway Information

Runway 18/36

Dimensions: 2200 x 60 ft. / 671 x 18 m
Surface: turf
RUNWAY 18  RUNWAY 36
Traffic pattern: leftleft

Airport Ownership and Management from official FAA records

Ownership: Privately-owned
Owner: B. RICHARD ASHBY
11697W 600S
WOLCOTT, IN 47995
Phone 219-279-2839
Manager: B. RICHARD ASHBY
11697W 600S
WOLCOTT, IN 47995
Phone 219-279-2839

Airport Operational Statistics

Aircraft based on the field: 1
Single engine airplanes: 1
    

Additional Remarks

FOR CD CTC CHICAGO ARTCC AT 630-906-8921.

Instrument Procedures

There are no published instrument procedures at II26.

Some nearby airports with instrument procedures:

50I - Kentland Municipal Airport (11 nm W)
KRZL - Jasper County Airport (15 nm N)
KMCX - White County Airport (19 nm E)
KLAF - Purdue University Airport (21 nm SE)
KRWN - Arens Field Airport (35 nm NE)
 
Loc | Ops | Rwys | IFR | FBO | Links
Com | Nav | Svcs | Stats | Notes
Area around II26 (Ashby Airport)
 
Road maps at: MapQuest Bing Google
 
Aerial photo
No photo
 
Sectional chart

 
Airport distance calculator
Flying to Ashby Airport? Find the distance to fly.

From to II26

Sunrise and sunset
Times for 12-Dec-2019
 Local
(UTC-5)
 Zulu
(UTC)
Morning civil twilight07:3412:34
Sunrise08:0413:04
Sunset17:2122:21
Evening civil twilight17:5122:51

Current date and time
Zulu (UTC)  12-Dec-2019 12:23:20
Local (UTC-5)  12-Dec-2019 07:23:20
 
METAR
KRZL 
15nm N 
121155Z AUTO 12006KT 10SM CLR M05/M07 A3042 RMK AO2
KMCX 
19nm E 
121155Z AUTO 13006KT 10SM CLR M05/M08 A3044 RMK AO2 T10511080 11051 21067
KLAF 
20nm SE 
121154Z 14006KT 10SM CLR M04/M07 A3044 RMK AO2 SLP316 T10391067 11033 21078 56012
TAF
KLAF 
20nm SE 
121120Z 1212/1312 15006KT P6SM SCT200 FM121600 18011G22KT P6SM SCT250 FM130000 18010G19KT P6SM FEW250 WS020/21040KT FM130200 18009KT P6SM FEW250 WS020/21035KT FM130700 20007KT P6SM SCT250 FM130900 20006KT P6SM BKN200 AMD LTD TO CLD VIS AND WIND TIL 121400
NOTAMs
Click for the latest NOTAMs
NOTAMs are issued by the DoD/FAA and will open in a separate window not controlled by AirNav.

 

 
 

Would you like to see your business listed on this page?

 If your business provides an interesting product or service to pilots, flight crews, aircraft, or users of the Ashby Airport, you should consider listing it here.  To start the listing process, click on the button below
 
Add a business
 

Other Pages about Ashby Airport

Update a link
 
Copyright © AirNav, LLC. All rights reserved. Privacy Policy  Contact